sensor_id;sensor_type;location;lat;lon;timestamp;temperature;humidity
25716;DHT22;13573;50.936;4.328;2023-03-04T00:00:09;6.40;99.90
25716;DHT22;13573;50.936;4.328;2023-03-04T00:02:36;7.40;99.90
25716;DHT22;13573;50.936;4.328;2023-03-04T00:07:29;7.30;99.90
25716;DHT22;13573;50.936;4.328;2023-03-04T00:09:56;7.20;99.90
25716;DHT22;13573;50.936;4.328;2023-03-04T00:12:22;7.10;99.90
25716;DHT22;13573;50.936;4.328;2023-03-04T00:14:49;7.50;99.90
25716;DHT22;13573;50.936;4.328;2023-03-04T00:17:16;7.20;99.90
25716;DHT22;13573;50.936;4.328;2023-03-04T00:19:42;7.40;99.90
25716;DHT22;13573;50.936;4.328;2023-03-04T00:22:10;7.60;99.90
25716;DHT22;13573;50.936;4.328;2023-03-04T00:24:37;7.80;99.90
25716;DHT22;13573;50.936;4.328;2023-03-04T00:27:03;7.40;99.90
25716;DHT22;13573;50.936;4.328;2023-03-04T00:29:30;7.40;99.90
25716;DHT22;13573;50.936;4.328;2023-03-04T00:31:56;7.40;99.90
25716;DHT22;13573;50.936;4.328;2023-03-04T00:34:23;7.60;99.90
25716;DHT22;13573;50.936;4.328;2023-03-04T00:36:50;7.40;99.90
25716;DHT22;13573;50.936;4.328;2023-03-04T00:39:16;7.60;99.90
25716;DHT22;13573;50.936;4.328;2023-03-04T00:41:43;7.70;99.90
25716;DHT22;13573;50.936;4.328;2023-03-04T00:44:10;7.60;99.90
25716;DHT22;13573;50.936;4.328;2023-03-04T00:46:36;7.40;99.90
25716;DHT22;13573;50.936;4.328;2023-03-04T00:49:03;7.20;99.90
25716;DHT22;13573;50.936;4.328;2023-03-04T00:51:29;7.80;99.90
25716;DHT22;13573;50.936;4.328;2023-03-04T00:53:56;7.30;99.90
25716;DHT22;13573;50.936;4.328;2023-03-04T00:56:23;7.20;99.90
25716;DHT22;13573;50.936;4.328;2023-03-04T00:58:49;7.20;99.90
25716;DHT22;13573;50.936;4.328;2023-03-04T01:01:16;7.10;99.90
25716;DHT22;13573;50.936;4.328;2023-03-04T01:03:43;7.80;99.90
25716;DHT22;13573;50.936;4.328;2023-03-04T01:06:10;7.30;99.90
25716;DHT22;13573;50.936;4.328;2023-03-04T01:08:37;7.20;99.90
25716;DHT22;13573;50.936;4.328;2023-03-04T01:11:05;7.70;99.90
25716;DHT22;13573;50.936;4.328;2023-03-04T01:13:32;7.80;99.90
25716;DHT22;13573;50.936;4.328;2023-03-04T01:15:59;7.80;99.90
25716;DHT22;13573;50.936;4.328;2023-03-04T01:18:25;7.50;99.90
25716;DHT22;13573;50.936;4.328;2023-03-04T01:20:52;7.60;99.90
25716;DHT22;13573;50.936;4.328;2023-03-04T01:23:19;7.80;99.90
25716;DHT22;13573;50.936;4.328;2023-03-04T01:28:14;8.00;99.90
25716;DHT22;13573;50.936;4.328;2023-03-04T01:30:42;7.50;99.90
25716;DHT22;13573;50.936;4.328;2023-03-04T01:33:08;7.70;99.90
25716;DHT22;13573;50.936;4.328;2023-03-04T01:35:35;7.40;99.90
25716;DHT22;13573;50.936;4.328;2023-03-04T01:38:02;7.50;99.90
25716;DHT22;13573;50.936;4.328;2023-03-04T01:40:30;7.60;99.90
25716;DHT22;13573;50.936;4.328;2023-03-04T01:42:57;7.50;99.90
25716;DHT22;13573;50.936;4.328;2023-03-04T01:45:23;7.20;99.90
25716;DHT22;13573;50.936;4.328;2023-03-04T01:47:50;7.60;99.90
25716;DHT22;13573;50.936;4.328;2023-03-04T01:50:27;7.80;99.90
25716;DHT22;13573;50.936;4.328;2023-03-04T01:52:54;7.70;99.90
25716;DHT22;13573;50.936;4.328;2023-03-04T01:55:22;8.00;99.90
25716;DHT22;13573;50.936;4.328;2023-03-04T01:57:50;7.90;99.90
25716;DHT22;13573;50.936;4.328;2023-03-04T02:00:31;7.40;99.90
25716;DHT22;13573;50.936;4.328;2023-03-04T02:03:03;7.60;99.90
25716;DHT22;13573;50.936;4.328;2023-03-04T02:05:29;7.90;99.90
25716;DHT22;13573;50.936;4.328;2023-03-04T02:07:57;7.60;99.90
25716;DHT22;13573;50.936;4.328;2023-03-04T02:10:24;7.40;99.90
25716;DHT22;13573;50.936;4.328;2023-03-04T02:12:52;7.50;99.90
25716;DHT22;13573;50.936;4.328;2023-03-04T02:15:19;7.80;99.90
25716;DHT22;13573;50.936;4.328;2023-03-04T02:17:46;7.70;99.90
25716;DHT22;13573;50.936;4.328;2023-03-04T02:20:21;7.40;99.90
25716;DHT22;13573;50.936;4.328;2023-03-04T02:23:00;7.70;99.90
25716;DHT22;13573;50.936;4.328;2023-03-04T02:25:32;7.70;99.90
25716;DHT22;13573;50.936;4.328;2023-03-04T02:27:58;7.80;99.90
25716;DHT22;13573;50.936;4.328;2023-03-04T02:30:25;7.70;99.90
25716;DHT22;13573;50.936;4.328;2023-03-04T02:32:52;7.40;99.90
25716;DHT22;13573;50.936;4.328;2023-03-04T02:35:20;7.90;99.90
25716;DHT22;13573;50.936;4.328;2023-03-04T02:37:47;7.80;99.90
25716;DHT22;13573;50.936;4.328;2023-03-04T02:40:23;7.90;99.90
25716;DHT22;13573;50.936;4.328;2023-03-04T02:42:50;7.40;99.90
25716;DHT22;13573;50.936;4.328;2023-03-04T02:45:35;7.10;99.90
25716;DHT22;13573;50.936;4.328;2023-03-04T02:48:03;7.30;99.90
25716;DHT22;13573;50.936;4.328;2023-03-04T02:50:33;7.40;99.90
25716;DHT22;13573;50.936;4.328;2023-03-04T02:53:00;7.40;99.90
25716;DHT22;13573;50.936;4.328;2023-03-04T02:55:27;7.60;99.90
25716;DHT22;13573;50.936;4.328;2023-03-04T02:57:54;7.90;99.90
25716;DHT22;13573;50.936;4.328;2023-03-04T03:00:21;7.40;99.90
25716;DHT22;13573;50.936;4.328;2023-03-04T03:02:48;7.60;99.90
25716;DHT22;13573;50.936;4.328;2023-03-04T03:05:16;7.30;99.90
25716;DHT22;13573;50.936;4.328;2023-03-04T03:07:43;7.50;99.90
25716;DHT22;13573;50.936;4.328;2023-03-04T03:10:10;7.50;99.90
25716;DHT22;13573;50.936;4.328;2023-03-04T03:12:37;7.70;99.90
25716;DHT22;13573;50.936;4.328;2023-03-04T03:15:06;7.70;99.90
25716;DHT22;13573;50.936;4.328;2023-03-04T03:17:33;7.80;99.90
25716;DHT22;13573;50.936;4.328;2023-03-04T03:19:59;7.80;99.90
25716;DHT22;13573;50.936;4.328;2023-03-04T03:22:26;7.10;99.90
25716;DHT22;13573;50.936;4.328;2023-03-04T03:24:53;7.30;99.90
25716;DHT22;13573;50.936;4.328;2023-03-04T03:27:19;7.10;99.90
25716;DHT22;13573;50.936;4.328;2023-03-04T03:29:46;7.30;99.90
25716;DHT22;13573;50.936;4.328;2023-03-04T03:32:13;8.00;99.90
25716;DHT22;13573;50.936;4.328;2023-03-04T03:34:39;7.40;99.90
25716;DHT22;13573;50.936;4.328;2023-03-04T03:37:06;7.10;99.90
25716;DHT22;13573;50.936;4.328;2023-03-04T03:39:32;7.20;99.90
25716;DHT22;13573;50.936;4.328;2023-03-04T03:41:59;7.40;99.90
25716;DHT22;13573;50.936;4.328;2023-03-04T03:44:26;7.30;99.90
25716;DHT22;13573;50.936;4.328;2023-03-04T03:46:52;7.50;99.90
25716;DHT22;13573;50.936;4.328;2023-03-04T03:49:19;7.00;99.90
25716;DHT22;13573;50.936;4.328;2023-03-04T03:51:45;7.10;99.90
25716;DHT22;13573;50.936;4.328;2023-03-04T03:54:12;7.00;99.90
25716;DHT22;13573;50.936;4.328;2023-03-04T03:56:39;7.20;99.90
25716;DHT22;13573;50.936;4.328;2023-03-04T03:59:05;7.40;99.90
25716;DHT22;13573;50.936;4.328;2023-03-04T04:01:32;7.40;99.90
25716;DHT22;13573;50.936;4.328;2023-03-04T04:04:02;7.50;99.90
25716;DHT22;13573;50.936;4.328;2023-03-04T04:06:29;7.40;99.90
25716;DHT22;13573;50.936;4.328;2023-03-04T04:08:56;7.50;99.90
25716;DHT22;13573;50.936;4.328;2023-03-04T04:11:22;7.30;99.90
25716;DHT22;13573;50.936;4.328;2023-03-04T04:13:49;7.10;99.90
25716;DHT22;13573;50.936;4.328;2023-03-04T04:16:15;6.90;99.90
25716;DHT22;13573;50.936;4.328;2023-03-04T04:18:42;7.50;99.90
25716;DHT22;13573;50.936;4.328;2023-03-04T04:21:09;7.40;99.90
25716;DHT22;13573;50.936;4.328;2023-03-04T04:23:35;7.20;99.90
25716;DHT22;13573;50.936;4.328;2023-03-04T04:28:29;5.30;99.90
25716;DHT22;13573;50.936;4.328;2023-03-04T04:30:55;8.10;99.90
25716;DHT22;13573;50.936;4.328;2023-03-04T04:33:22;6.50;99.90
25716;DHT22;13573;50.936;4.328;2023-03-04T04:35:48;6.20;99.90
25716;DHT22;13573;50.936;4.328;2023-03-04T04:38:15;7.70;99.90
25716;DHT22;13573;50.936;4.328;2023-03-04T04:40:42;7.60;99.90
25716;DHT22;13573;50.936;4.328;2023-03-04T04:43:08;7.20;99.90
25716;DHT22;13573;50.936;4.328;2023-03-04T04:45:35;7.60;99.90
25716;DHT22;13573;50.936;4.328;2023-03-04T04:48:02;7.80;99.90
25716;DHT22;13573;50.936;4.328;2023-03-04T04:50:28;7.60;99.90
25716;DHT22;13573;50.936;4.328;2023-03-04T04:52:56;7.60;99.90
25716;DHT22;13573;50.936;4.328;2023-03-04T04:55:25;7.60;99.90
25716;DHT22;13573;50.936;4.328;2023-03-04T04:57:53;6.90;99.90
25716;DHT22;13573;50.936;4.328;2023-03-04T05:00:19;7.10;99.90
25716;DHT22;13573;50.936;4.328;2023-03-04T05:02:46;7.30;99.90
25716;DHT22;13573;50.936;4.328;2023-03-04T05:05:13;7.10;99.90
25716;DHT22;13573;50.936;4.328;2023-03-04T05:07:39;7.20;99.90
25716;DHT22;13573;50.936;4.328;2023-03-04T05:10:07;7.10;99.90
25716;DHT22;13573;50.936;4.328;2023-03-04T05:12:33;7.50;99.90
25716;DHT22;13573;50.936;4.328;2023-03-04T05:15:01;7.40;99.90
25716;DHT22;13573;50.936;4.328;2023-03-04T05:17:28;7.20;99.90
25716;DHT22;13573;50.936;4.328;2023-03-04T05:19:55;7.40;99.90
25716;DHT22;13573;50.936;4.328;2023-03-04T05:22:21;7.70;99.90
25716;DHT22;13573;50.936;4.328;2023-03-04T05:24:48;7.60;99.90
25716;DHT22;13573;50.936;4.328;2023-03-04T05:27:14;7.70;99.90
25716;DHT22;13573;50.936;4.328;2023-03-04T05:29:41;7.40;99.90
25716;DHT22;13573;50.936;4.328;2023-03-04T05:32:09;7.50;99.90
25716;DHT22;13573;50.936;4.328;2023-03-04T05:34:36;6.10;99.90
25716;DHT22;13573;50.936;4.328;2023-03-04T05:37:02;7.30;99.90
25716;DHT22;13573;50.936;4.328;2023-03-04T05:39:29;7.20;99.90
25716;DHT22;13573;50.936;4.328;2023-03-04T05:41:55;7.20;99.90
25716;DHT22;13573;50.936;4.328;2023-03-04T05:44:22;7.40;99.90
25716;DHT22;13573;50.936;4.328;2023-03-04T05:46:49;7.70;99.90
25716;DHT22;13573;50.936;4.328;2023-03-04T05:49:15;7.90;99.90
25716;DHT22;13573;50.936;4.328;2023-03-04T05:51:42;7.50;99.90
25716;DHT22;13573;50.936;4.328;2023-03-04T05:54:08;7.70;99.90
25716;DHT22;13573;50.936;4.328;2023-03-04T05:56:35;7.70;99.90
25716;DHT22;13573;50.936;4.328;2023-03-04T05:59:02;7.60;99.90
25716;DHT22;13573;50.936;4.328;2023-03-04T06:01:28;8.00;99.90
25716;DHT22;13573;50.936;4.328;2023-03-04T06:03:56;7.90;99.90
25716;DHT22;13573;50.936;4.328;2023-03-04T06:06:22;7.40;99.90
25716;DHT22;13573;50.936;4.328;2023-03-04T06:08:49;7.60;99.90
25716;DHT22;13573;50.936;4.328;2023-03-04T06:11:16;7.50;99.90
25716;DHT22;13573;50.936;4.328;2023-03-04T06:13:42;7.80;99.90
25716;DHT22;13573;50.936;4.328;2023-03-04T06:16:09;7.70;99.90
25716;DHT22;13573;50.936;4.328;2023-03-04T06:18:37;7.40;99.90
25716;DHT22;13573;50.936;4.328;2023-03-04T06:21:04;7.70;99.90
25716;DHT22;13573;50.936;4.328;2023-03-04T06:23:30;7.50;99.90
25716;DHT22;13573;50.936;4.328;2023-03-04T06:25:58;6.30;99.90
25716;DHT22;13573;50.936;4.328;2023-03-04T06:28:26;7.60;99.90
25716;DHT22;13573;50.936;4.328;2023-03-04T06:30:55;7.30;99.90
25716;DHT22;13573;50.936;4.328;2023-03-04T06:33:22;7.40;99.90
25716;DHT22;13573;50.936;4.328;2023-03-04T06:35:53;7.40;99.90
25716;DHT22;13573;50.936;4.328;2023-03-04T06:38:20;7.50;99.90
25716;DHT22;13573;50.936;4.328;2023-03-04T06:40:47;7.00;99.90
25716;DHT22;13573;50.936;4.328;2023-03-04T06:43:13;7.60;99.90
25716;DHT22;13573;50.936;4.328;2023-03-04T06:45:40;8.00;99.90
25716;DHT22;13573;50.936;4.328;2023-03-04T06:48:07;7.50;99.90
25716;DHT22;13573;50.936;4.328;2023-03-04T06:50:34;7.00;99.90
25716;DHT22;13573;50.936;4.328;2023-03-04T06:53:00;7.60;99.90
25716;DHT22;13573;50.936;4.328;2023-03-04T06:55:27;6.40;99.90
25716;DHT22;13573;50.936;4.328;2023-03-04T06:57:54;7.90;99.90
25716;DHT22;13573;50.936;4.328;2023-03-04T07:00:20;7.70;99.90
25716;DHT22;13573;50.936;4.328;2023-03-04T07:02:49;8.00;99.90
25716;DHT22;13573;50.936;4.328;2023-03-04T07:05:16;7.60;99.90
25716;DHT22;13573;50.936;4.328;2023-03-04T07:07:42;7.40;99.90
25716;DHT22;13573;50.936;4.328;2023-03-04T07:12:36;8.00;99.90
25716;DHT22;13573;50.936;4.328;2023-03-04T07:15:03;7.50;99.90
25716;DHT22;13573;50.936;4.328;2023-03-04T07:17:30;6.30;99.90
25716;DHT22;13573;50.936;4.328;2023-03-04T07:19:56;7.10;99.90
25716;DHT22;13573;50.936;4.328;2023-03-04T07:22:23;7.40;99.90
25716;DHT22;13573;50.936;4.328;2023-03-04T07:24:50;7.80;99.90
25716;DHT22;13573;50.936;4.328;2023-03-04T07:27:16;7.40;99.90
25716;DHT22;13573;50.936;4.328;2023-03-04T07:29:43;7.70;99.90
25716;DHT22;13573;50.936;4.328;2023-03-04T07:32:10;7.50;99.90
25716;DHT22;13573;50.936;4.328;2023-03-04T07:34:37;7.70;99.90
25716;DHT22;13573;50.936;4.328;2023-03-04T07:37:04;7.50;99.90
25716;DHT22;13573;50.936;4.328;2023-03-04T07:39:30;7.60;99.90
25716;DHT22;13573;50.936;4.328;2023-03-04T07:41:57;7.20;99.90
25716;DHT22;13573;50.936;4.328;2023-03-04T07:44:23;7.70;99.90
25716;DHT22;13573;50.936;4.328;2023-03-04T07:46:50;7.60;99.90
25716;DHT22;13573;50.936;4.328;2023-03-04T07:49:18;7.70;99.90
25716;DHT22;13573;50.936;4.328;2023-03-04T07:51:44;7.80;99.90
25716;DHT22;13573;50.936;4.328;2023-03-04T07:54:11;8.00;99.90
25716;DHT22;13573;50.936;4.328;2023-03-04T07:56:38;7.80;99.90
25716;DHT22;13573;50.936;4.328;2023-03-04T07:59:04;7.80;99.90
25716;DHT22;13573;50.936;4.328;2023-03-04T08:01:34;8.10;99.90
25716;DHT22;13573;50.936;4.328;2023-03-04T08:04:02;8.30;99.90
25716;DHT22;13573;50.936;4.328;2023-03-04T08:06:30;7.70;99.90
25716;DHT22;13573;50.936;4.328;2023-03-04T08:09:02;8.10;99.90
25716;DHT22;13573;50.936;4.328;2023-03-04T08:11:30;7.60;99.90
25716;DHT22;13573;50.936;4.328;2023-03-04T08:13:57;8.10;99.90
25716;DHT22;13573;50.936;4.328;2023-03-04T08:16:24;8.00;99.90
25716;DHT22;13573;50.936;4.328;2023-03-04T08:18:54;8.40;99.90
25716;DHT22;13573;50.936;4.328;2023-03-04T08:21:22;8.40;99.90
25716;DHT22;13573;50.936;4.328;2023-03-04T08:23:50;8.00;99.90
25716;DHT22;13573;50.936;4.328;2023-03-04T08:26:24;7.90;99.90
25716;DHT22;13573;50.936;4.328;2023-03-04T08:28:52;7.90;99.90
25716;DHT22;13573;50.936;4.328;2023-03-04T08:31:20;8.00;99.90
25716;DHT22;13573;50.936;4.328;2023-03-04T08:33:47;7.40;99.90
25716;DHT22;13573;50.936;4.328;2023-03-04T08:36:14;7.50;99.90
25716;DHT22;13573;50.936;4.328;2023-03-04T08:38:41;7.90;99.90
25716;DHT22;13573;50.936;4.328;2023-03-04T08:41:08;8.10;99.90
25716;DHT22;13573;50.936;4.328;2023-03-04T08:43:34;8.10;99.90
25716;DHT22;13573;50.936;4.328;2023-03-04T08:46:01;8.10;99.90
25716;DHT22;13573;50.936;4.328;2023-03-04T08:48:29;8.10;99.90
25716;DHT22;13573;50.936;4.328;2023-03-04T08:50:56;8.10;99.90
25716;DHT22;13573;50.936;4.328;2023-03-04T08:53:22;7.90;99.90
25716;DHT22;13573;50.936;4.328;2023-03-04T08:55:50;8.20;99.90
25716;DHT22;13573;50.936;4.328;2023-03-04T08:58:18;8.30;99.90
25716;DHT22;13573;50.936;4.328;2023-03-04T09:00:46;7.70;99.90
25716;DHT22;13573;50.936;4.328;2023-03-04T09:03:14;8.50;99.90
25716;DHT22;13573;50.936;4.328;2023-03-04T09:05:43;8.90;99.90
25716;DHT22;13573;50.936;4.328;2023-03-04T09:08:09;7.60;99.90
25716;DHT22;13573;50.936;4.328;2023-03-04T09:10:36;8.20;99.90
25716;DHT22;13573;50.936;4.328;2023-03-04T09:13:04;8.40;99.90
25716;DHT22;13573;50.936;4.328;2023-03-04T09:15:32;7.20;99.90
25716;DHT22;13573;50.936;4.328;2023-03-04T09:18:02;8.50;99.90
25716;DHT22;13573;50.936;4.328;2023-03-04T09:20:31;8.50;99.90
25716;DHT22;13573;50.936;4.328;2023-03-04T09:22:57;8.20;99.90
25716;DHT22;13573;50.936;4.328;2023-03-04T09:25:24;8.40;99.90
25716;DHT22;13573;50.936;4.328;2023-03-04T09:27:51;8.60;99.90
25716;DHT22;13573;50.936;4.328;2023-03-04T09:30:18;8.50;99.90
25716;DHT22;13573;50.936;4.328;2023-03-04T09:32:45;8.60;99.90
25716;DHT22;13573;50.936;4.328;2023-03-04T09:35:12;8.60;99.90
25716;DHT22;13573;50.936;4.328;2023-03-04T09:37:39;8.50;99.90
25716;DHT22;13573;50.936;4.328;2023-03-04T09:40:07;8.50;99.90
25716;DHT22;13573;50.936;4.328;2023-03-04T09:45:05;8.60;99.90
25716;DHT22;13573;50.936;4.328;2023-03-04T09:47:34;8.70;99.90
25716;DHT22;13573;50.936;4.328;2023-03-04T09:50:06;8.60;99.90
25716;DHT22;13573;50.936;4.328;2023-03-04T09:55:41;8.80;99.90
25716;DHT22;13573;50.936;4.328;2023-03-04T09:58:20;8.90;99.90
25716;DHT22;13573;50.936;4.328;2023-03-04T10:00:50;8.80;99.90
25716;DHT22;13573;50.936;4.328;2023-03-04T10:03:17;8.80;99.90
25716;DHT22;13573;50.936;4.328;2023-03-04T10:05:55;8.80;99.90
25716;DHT22;13573;50.936;4.328;2023-03-04T10:10:59;8.90;99.90
25716;DHT22;13573;50.936;4.328;2023-03-04T10:13:54;10.10;99.90
25716;DHT22;13573;50.936;4.328;2023-03-04T10:16:25;9.00;99.90
25716;DHT22;13573;50.936;4.328;2023-03-04T10:19:13;9.00;99.90
25716;DHT22;13573;50.936;4.328;2023-03-04T10:21:40;8.70;99.90
25716;DHT22;13573;50.936;4.328;2023-03-04T10:24:11;9.50;99.90
25716;DHT22;13573;50.936;4.328;2023-03-04T10:26:41;9.20;99.90
25716;DHT22;13573;50.936;4.328;2023-03-04T10:29:15;9.10;99.90
25716;DHT22;13573;50.936;4.328;2023-03-04T10:31:44;9.70;99.90
25716;DHT22;13573;50.936;4.328;2023-03-04T10:34:12;9.20;99.90
25716;DHT22;13573;50.936;4.328;2023-03-04T10:37:05;9.30;99.90
25716;DHT22;13573;50.936;4.328;2023-03-04T10:39:38;10.50;99.90
25716;DHT22;13573;50.936;4.328;2023-03-04T10:44:58;9.90;99.90
25716;DHT22;13573;50.936;4.328;2023-03-04T10:47:28;9.70;99.90
25716;DHT22;13573;50.936;4.328;2023-03-04T10:49:58;11.00;99.90
25716;DHT22;13573;50.936;4.328;2023-03-04T10:52:29;11.00;99.90
25716;DHT22;13573;50.936;4.328;2023-03-04T10:54:59;10.30;99.90
25716;DHT22;13573;50.936;4.328;2023-03-04T10:57:36;11.20;99.90
25716;DHT22;13573;50.936;4.328;2023-03-04T11:00:26;9.80;99.90
25716;DHT22;13573;50.936;4.328;2023-03-04T11:05:31;9.80;99.90
25716;DHT22;13573;50.936;4.328;2023-03-04T11:07:59;9.60;99.90
25716;DHT22;13573;50.936;4.328;2023-03-04T11:10:39;10.60;99.90
25716;DHT22;13573;50.936;4.328;2023-03-04T11:13:16;10.80;99.90
25716;DHT22;13573;50.936;4.328;2023-03-04T11:21:19;10.20;99.90
25716;DHT22;13573;50.936;4.328;2023-03-04T11:24:09;10.70;99.90
25716;DHT22;13573;50.936;4.328;2023-03-04T11:26:40;10.90;99.90
25716;DHT22;13573;50.936;4.328;2023-03-04T11:29:13;10.30;99.90
25716;DHT22;13573;50.936;4.328;2023-03-04T11:37:15;11.10;99.90
25716;DHT22;13573;50.936;4.328;2023-03-04T11:39:51;11.00;99.90
25716;DHT22;13573;50.936;4.328;2023-03-04T11:42:30;10.70;99.90
25716;DHT22;13573;50.936;4.328;2023-03-04T11:44:56;11.20;99.90
25716;DHT22;13573;50.936;4.328;2023-03-04T11:50:28;10.70;99.90
25716;DHT22;13573;50.936;4.328;2023-03-04T11:55:36;10.90;99.90
25716;DHT22;13573;50.936;4.328;2023-03-04T11:58:12;11.20;99.90
25716;DHT22;13573;50.936;4.328;2023-03-04T12:00:53;10.90;99.90
25716;DHT22;13573;50.936;4.328;2023-03-04T12:03:41;10.90;99.90
25716;DHT22;13573;50.936;4.328;2023-03-04T12:06:29;11.00;99.90
25716;DHT22;13573;50.936;4.328;2023-03-04T12:09:02;10.70;99.90
25716;DHT22;13573;50.936;4.328;2023-03-04T12:11:55;11.00;99.90
25716;DHT22;13573;50.936;4.328;2023-03-04T12:17:21;10.90;99.90
25716;DHT22;13573;50.936;4.328;2023-03-04T12:22:42;11.00;99.90
25716;DHT22;13573;50.936;4.328;2023-03-04T12:25:37;11.10;99.90
25716;DHT22;13573;50.936;4.328;2023-03-04T12:28:22;11.20;99.90
25716;DHT22;13573;50.936;4.328;2023-03-04T12:31:03;11.10;99.90
25716;DHT22;13573;50.936;4.328;2023-03-04T12:33:54;11.20;99.90
25716;DHT22;13573;50.936;4.328;2023-03-04T12:36:26;10.70;99.90
25716;DHT22;13573;50.936;4.328;2023-03-04T12:38:57;9.90;99.90
25716;DHT22;13573;50.936;4.328;2023-03-04T12:41:48;11.10;99.90
25716;DHT22;13573;50.936;4.328;2023-03-04T12:44:17;10.90;99.90
25716;DHT22;13573;50.936;4.328;2023-03-04T12:47:59;11.00;99.90
25716;DHT22;13573;50.936;4.328;2023-03-04T12:55:22;11.10;99.90
25716;DHT22;13573;50.936;4.328;2023-03-04T12:57:50;10.70;99.90
25716;DHT22;13573;50.936;4.328;2023-03-04T13:00:39;10.70;99.90
25716;DHT22;13573;50.936;4.328;2023-03-04T13:03:17;11.20;99.90
25716;DHT22;13573;50.936;4.328;2023-03-04T13:08:24;10.80;99.90
25716;DHT22;13573;50.936;4.328;2023-03-04T13:10:50;10.90;99.90
25716;DHT22;13573;50.936;4.328;2023-03-04T13:13:36;10.60;99.90
25716;DHT22;13573;50.936;4.328;2023-03-04T13:16:26;12.40;99.90
25716;DHT22;13573;50.936;4.328;2023-03-04T13:18:36;11.30;99.90
25716;DHT22;13573;50.936;4.328;2023-03-04T13:21:25;11.80;99.90
25716;DHT22;13573;50.936;4.328;2023-03-04T13:26:27;10.70;99.90
25716;DHT22;13573;50.936;4.328;2023-03-04T13:32:00;10.20;99.90
25716;DHT22;13573;50.936;4.328;2023-03-04T13:37:33;11.60;99.90
25716;DHT22;13573;50.936;4.328;2023-03-04T13:42:42;10.90;99.90
25716;DHT22;13573;50.936;4.328;2023-03-04T13:45:49;9.90;99.90
25716;DHT22;13573;50.936;4.328;2023-03-04T13:48:04;10.80;99.90
25716;DHT22;13573;50.936;4.328;2023-03-04T13:50:36;10.80;99.90
25716;DHT22;13573;50.936;4.328;2023-03-04T13:55:42;9.60;99.90
25716;DHT22;13573;50.936;4.328;2023-03-04T13:58:19;10.70;99.90
25716;DHT22;13573;50.936;4.328;2023-03-04T14:00:49;11.80;99.90
25716;DHT22;13573;50.936;4.328;2023-03-04T14:03:21;10.60;99.90
25716;DHT22;13573;50.936;4.328;2023-03-04T14:08:24;11.60;99.90
25716;DHT22;13573;50.936;4.328;2023-03-04T14:10:55;10.70;99.90
25716;DHT22;13573;50.936;4.328;2023-03-04T14:13:22;11.00;99.90
25716;DHT22;13573;50.936;4.328;2023-03-04T14:15:56;10.40;99.90
25716;DHT22;13573;50.936;4.328;2023-03-04T14:18:23;10.80;99.90
25716;DHT22;13573;50.936;4.328;2023-03-04T14:20:51;11.10;99.90
25716;DHT22;13573;50.936;4.328;2023-03-04T14:23:24;10.50;99.90
25716;DHT22;13573;50.936;4.328;2023-03-04T14:25:56;10.70;99.90
25716;DHT22;13573;50.936;4.328;2023-03-04T14:28:20;10.60;99.90
25716;DHT22;13573;50.936;4.328;2023-03-04T14:30:54;10.50;99.90
25716;DHT22;13573;50.936;4.328;2023-03-04T14:33:25;10.60;99.90
25716;DHT22;13573;50.936;4.328;2023-03-04T14:35:57;10.80;99.90
25716;DHT22;13573;50.936;4.328;2023-03-04T14:38:34;11.10;99.90
25716;DHT22;13573;50.936;4.328;2023-03-04T14:41:06;10.50;99.90
25716;DHT22;13573;50.936;4.328;2023-03-04T14:43:39;10.80;99.90
25716;DHT22;13573;50.936;4.328;2023-03-04T14:46:12;10.70;99.90
25716;DHT22;13573;50.936;4.328;2023-03-04T14:48:44;11.00;99.90
25716;DHT22;13573;50.936;4.328;2023-03-04T14:51:27;10.20;99.90
25716;DHT22;13573;50.936;4.328;2023-03-04T14:53:52;10.50;99.90
25716;DHT22;13573;50.936;4.328;2023-03-04T14:56:25;10.10;99.90
25716;DHT22;13573;50.936;4.328;2023-03-04T14:58:55;10.00;99.90
25716;DHT22;13573;50.936;4.328;2023-03-04T15:01:36;10.20;99.90
25716;DHT22;13573;50.936;4.328;2023-03-04T15:04:07;10.10;99.90
25716;DHT22;13573;50.936;4.328;2023-03-04T15:06:37;10.40;99.90
25716;DHT22;13573;50.936;4.328;2023-03-04T15:09:06;10.60;99.90
25716;DHT22;13573;50.936;4.328;2023-03-04T15:11:47;10.20;99.90
25716;DHT22;13573;50.936;4.328;2023-03-04T15:16:54;10.30;99.90
25716;DHT22;13573;50.936;4.328;2023-03-04T15:19:26;10.40;99.90
25716;DHT22;13573;50.936;4.328;2023-03-04T15:24:27;9.40;99.90
25716;DHT22;13573;50.936;4.328;2023-03-04T15:26:53;9.90;99.90
25716;DHT22;13573;50.936;4.328;2023-03-04T15:29:21;10.60;99.90
25716;DHT22;13573;50.936;4.328;2023-03-04T15:31:48;10.70;99.90
25716;DHT22;13573;50.936;4.328;2023-03-04T15:34:17;10.90;99.90
25716;DHT22;13573;50.936;4.328;2023-03-04T15:36:46;10.90;99.90
25716;DHT22;13573;50.936;4.328;2023-03-04T15:39:15;10.80;99.90
25716;DHT22;13573;50.936;4.328;2023-03-04T15:41:43;10.70;99.90
25716;DHT22;13573;50.936;4.328;2023-03-04T15:44:13;10.90;99.90
25716;DHT22;13573;50.936;4.328;2023-03-04T15:46:40;10.80;99.90
25716;DHT22;13573;50.936;4.328;2023-03-04T15:49:06;10.50;99.90
25716;DHT22;13573;50.936;4.328;2023-03-04T15:51:33;10.70;99.90
25716;DHT22;13573;50.936;4.328;2023-03-04T15:56:31;10.60;99.90
25716;DHT22;13573;50.936;4.328;2023-03-04T15:59:05;10.70;99.90
25716;DHT22;13573;50.936;4.328;2023-03-04T16:01:33;11.40;99.90
25716;DHT22;13573;50.936;4.328;2023-03-04T16:04:00;11.60;99.90
25716;DHT22;13573;50.936;4.328;2023-03-04T16:06:29;10.40;99.90
25716;DHT22;13573;50.936;4.328;2023-03-04T16:08:57;10.30;99.90
25716;DHT22;13573;50.936;4.328;2023-03-04T16:11:26;10.40;99.90
25716;DHT22;13573;50.936;4.328;2023-03-04T16:13:53;10.70;99.90
25716;DHT22;13573;50.936;4.328;2023-03-04T16:16:20;10.30;99.90
25716;DHT22;13573;50.936;4.328;2023-03-04T16:18:47;10.60;99.90
25716;DHT22;13573;50.936;4.328;2023-03-04T16:21:16;10.70;99.90
25716;DHT22;13573;50.936;4.328;2023-03-04T16:23:45;10.20;99.90
25716;DHT22;13573;50.936;4.328;2023-03-04T16:26:16;10.20;99.90
25716;DHT22;13573;50.936;4.328;2023-03-04T16:28:43;10.10;99.90
25716;DHT22;13573;50.936;4.328;2023-03-04T16:31:12;10.30;99.90
25716;DHT22;13573;50.936;4.328;2023-03-04T16:33:39;10.00;99.90
25716;DHT22;13573;50.936;4.328;2023-03-04T16:36:14;10.90;99.90
25716;DHT22;13573;50.936;4.328;2023-03-04T16:38:42;10.00;99.90
25716;DHT22;13573;50.936;4.328;2023-03-04T16:41:12;9.30;99.90
25716;DHT22;13573;50.936;4.328;2023-03-04T16:43:40;10.10;99.90
25716;DHT22;13573;50.936;4.328;2023-03-04T16:46:11;9.10;99.90
25716;DHT22;13573;50.936;4.328;2023-03-04T16:48:38;10.00;99.90
25716;DHT22;13573;50.936;4.328;2023-03-04T16:51:14;10.10;99.90
25716;DHT22;13573;50.936;4.328;2023-03-04T16:53:44;10.00;99.90
25716;DHT22;13573;50.936;4.328;2023-03-04T16:56:15;9.90;99.90
25716;DHT22;13573;50.936;4.328;2023-03-04T16:58:43;10.90;99.90
25716;DHT22;13573;50.936;4.328;2023-03-04T17:01:21;11.00;99.90
25716;DHT22;13573;50.936;4.328;2023-03-04T17:03:48;9.80;99.90
25716;DHT22;13573;50.936;4.328;2023-03-04T17:06:15;9.80;99.90
25716;DHT22;13573;50.936;4.328;2023-03-04T17:08:42;7.10;99.90
25716;DHT22;13573;50.936;4.328;2023-03-04T17:11:14;9.10;99.90
25716;DHT22;13573;50.936;4.328;2023-03-04T17:13:41;9.00;99.90